KELD/ELD METAR and TAF weather

Enter ICAO airport designator
Station Type Date Time Source
KELD METAR 2019/02/22 21:53 UTC NOAA

KELD 222153Z AUTO 08009KT 10SM -RA OVC006 13/13 A2999 RMK AO2 SLP153 P0001 T01330128


Station Type Date Time Source
KELD Decoded METAR 2019/02/22 21:53 UTC NOAA

SOUTH ARKANSAS REGIONAL, AR, United States (KELD) 33-13N 092-49W 81M
Feb 22, 2019 - 04:53 PM EST / 2019.02.22 2153 UTC
Wind: from the E (080 degrees) at 10 MPH (9 KT):0
Visibility: 10 mile(s):0
Sky conditions: overcast
Weather: light rain
Precipitation last hour: 0.01 inches
Temperature: 55.9 F (13.3 C)
Dew Point: 55.0 F (12.8 C)
Relative Humidity: 96%
Pressure (altimeter): 29.99 in. Hg (1015 hPa)
ob: KELD 222153Z AUTO 08009KT 10SM -RA OVC006 13/13 A2999 RMK AO2 SLP153 P0001 T01330128
cycle: 22

Station Type Date Time Source
KELD TAF 2019/02/22 23:36 UTC NOAA

TAF
AMD KELD 222232Z 2223/2318 07008KT 6SM -SHRA BR OVC006
FM230000 09004KT 6SM BR VCSH OVC007
FM230700 16008KT 2SM BR OVC004
FM231500 21014G22KT 4SM TSRA OVC010CB


Example: see airport list